You are here:
  • Home »
  • Tender »
  • Open Tender Enquiry

Open Tender Enquiry

4900-4801 4800-4701 4700-4601 4600-4501 4500-4401 4400-4301 4300-4201 4200-4101
4100-4001 4000-3901 3900-3801 3800-3701 3700-3601 3600-3501 3500-3401 3400-3301
3300-3201 3200-3101 3100-3001 3000-2901 2900-2801 2800-2701 2700-2601 2600-2501
2500-2401 2400-2301 2300-2201 2200-2101 2100-2001 2000-1901 1900-1801
1800-1701 1700-1601 1600-1501 1500-1401 1400-1301 1300-1201 1200-1101 1100-1001
1000-901 900-801 800-701 700-601 600-501 500-401 400-301 300-201
200-101 100-1 1300-1251 1250-1201 1200-1151 1150-1101 1100-1051 1050-1001
1000-951 950-901 900-851 850-801 800-751 750-701 700-651 650-601
600-551 550-501 500-451 450-401 400-351 350-301 300-251 250-201
200-151 150-101 100-51 50-01

Sl.No. Enquiry No. Date Due on Short Description
4601 1- PE180539-1 21.04.2018 08.05.2018 Assy PCB CPU,Firmware,gasket
4602 1- PE180541-1 21.04.2018 15.05.2018 Aux.Relay/Flasher Relay
4603 1- PE180542-1 23.04.2018 18.05.2018 Blower Fan Motor
4604 1- PE180543-1 23.04.2018 18.05.2018 3-Phase Full Face Rectifier unit
4605 1- PE180544-1 24.04.2018 18.05.2018 Vacuum Contactor
4606 1- PE180547-1 24.04.2018 18.05.2018 Timers for VF-3000 fan
4607 1- PE180550-1 24.04.2018 22.05.2018 3-Phase Squirrel Cage induction motor
4608 2- PE180540-1 21.04..2018 15.05.2018 Temperature Transmitter
4609 2- PE180546-1 24.04.2018 18.05.2018 Profibus
4610 2- PE180552-1 25.04.2018 18.05.2018 BAGSVIG Heater Spares
4611 1/ PE180260/1 26.04.2018 31.05.2018 Led Street Light
4612 1/ PE180470/1 26.04.2018 31.05.2018 Copper Wire
4613 1/ PE180488/1 26.04.2018 31.05.2018 Switch Socket
4614 1/ PE180502/1 26.04.2018 31.05.2018 Welding Machine
4615 1/ PE180504/1 26.04.2018 31.05.2018 Printing Items
4616 1/ PE180964/8 26.04.2018 31.05.2018 Kit Valve and Seal
4617 1/ PE180983/8 26.04.2018 31.05.2018 Ladder
4618 1/ PE180984/8 26.04.2018 31.05.2018 Nut & Bolts
4619 1/ PE180991/8 26.04.2018 31.05.2018 Tonner
4620 2/ PE180710/8 24/04/2018 28/05/2018 SPARE FOR DIAPHRAGM VALVE
4621 2/ PE180352/1 24/04/2018 28/05/2018 WINDOW GM DETECTOR
4622 2/ PE180346/1 24/04/2018 28/05/2018 SHAFT SLEEVE
4623 2/ PE180350/1 24/04/2018 28/05/2018 GEAR COUPLING
4624 2/ PE180711/8 24/04/2018 28/05/2018 EAR PLUG (SPIRAL)
4625 2/ PE180353/1 24/04/2018 28/05/2018 SPARE CARD AC DRIVE
4626 2/ PE180309/1 24/04/2018 28/05/2018 SPARE FOR AVERY BELT WEIGHER
4627 2/ PE180311/1 24/04/2018 28/05/2018 POLYTHENE PACKET
4628 2/ PE180310/1 24/04/2018 28/05/2018 TISSUE PAPER FOR LAB USE
4629 1/ PE180432/1 30.04.2018 04.06.2018 Printing Items
4630 1/ PE181016/8 30.04.2018 04.06.2018 Printing Items
4631 1/ PE181017/8 30.04.2018 04.06.2018 Spare for Ventilation Fan
4632 1/ PE181018/8 30.04.2018 04.06.2018 Measuring Instrument Guage
4633 1/ PE181019/8 30.04.2018 04.06.2018 HSS Slitting Saw Cutter
4634 1/ PE181020/8 30.04.2018 04.06.2018 Hanging Type Weigh Scale
4635 1/ PE181021/8 30.04.2018 04.06.2018 Key Board for PTZ
4636 1/ PE181022/8 30.04.2018 04.06.2018 Printing Items
4637 1/ PE181035/8 30.04.2018 04.06.2018 Led Tube Light
4638 1/ PE181038/8 30.04.2018 04.06.2018 G.I. Wire
4639 2/ PE180717/8 24/04/2018 28/05/2018 DIFFERENTIAL PRESSURE SWITCH
4640 2/ PE180274/1 16/04/2018 29/05/2018 BACK STOP FOR CONVEYOR
4641 2/ PE180223/1 16/04/2018 29/05/2018 CONVEYOR BELT
4642 2/ PE180276/1 16/04/2018 29/05/2018 RUBBER HANDGLOVES
4643 2/ PE180277/1 16/04/2018 29/05/2018 DISPOSABLE FACE MASK
4644 2/ PE180275/1 17/04/2018 29/05/2018 MS PIPE
4645 2/ PE180272/1 17/04/2018 29/05/2018 MS SLIP ON FLANGE
4646 2/ PE180273/1 17/04/2018 29/05/2018 ASBESTOS SHEET
4647 2/ PE180249/1 16/04/2018 29/05/2018 HOSE CLAMP
4648 2/ PE180313/1 16/04/2018 29/05/2018 COOLING FAN
4649 2/ PE180312/1 16/04/2018 29/05/2018 COUNTER SHAFT
4650 1/ PE180543/1 02.05.2018 05.06.2018 Steel Tape
4651 1/ PE180548/1 02.05.2018 05.06.2018 Wire Net
4652 1/ PE180549/1 02.05.2018 05.06.2018 Galavanised Chain Link
4653 1/ PE180550/1 02.05.2018 05.06.2018 Allew Screw
4654 1/ PE180551/1 02.05.2018 05.06.2018 Flash Back Arrestor
4655 1/ PE180553/1 02.05.2018 05.06.2018 Polister Webbing Sling
4656 1/ PE180554/1 02.05.2018 05.06.2018 M.S. Studs for Pump
4657 1/ PE180555/1 02.05.2018 05.06.2018 Grease Gun
4658 1/ PE180556/1 02.05.2018 05.06.2018 Grease Piston Assy.
4659 1/ PE180559/1 02.05.2018 05.06.2018 Pheneol Liquid
4660 1/ PE180278/7 03.05.2018 06.06.2018 Nail Wire
4661 1/ PE180279/7 03.05.2018 06.06.2018 Lock
4662 1/ PE180286/7 03.05.2018 06.06.2018 M.S. Hinges
4663 1/ PE180981/8 03.05.2018 06.06.2018 Hardness Testing Machine
4664 1/ PE180993/8 03.05.2018 06.06.2018 Filter Belt
4665 1/ PE181051/8 03.05.2018 06.06.2018 D’Shacles
4666 1/ PE181052/8 03.05.2018 06.06.2018 Grease Gun
4667 1/ PE181053/8 03.05.2018 06.06.2018 Pump Barrel
4668 1/ PE181055/8 03.05.2018 06.06.2018 Polyster Webbing
4669 1/ PE181056/8 03.05.2018 06.06.2018 Round Bar
4670 1- PE180537-1 20.04.2018 18.05.2018 Fire Safety Items
4671 1- PE180545-1 24.04.2018 22.05.2018 LT Power Cable Aluminum Conductor
4672 1- PE180548-1 24.04.2018 18.05.2018 LT Switch gear panel
4673 1- PE180551-1 24.04.2018 18.05.2018 Power Contactors
4674 1- PE180553-1 26/04/2018 22/05/2018 12 KVA Transformer
4675 1- PE180554-1 26.04.2018 22.05.2018 SIEMENS Make Contactor
4676 1- PE180555-1 26.04.2018 18.05.2018 Fire Safety Items
4677 1- PE180560-1 27.04.2018 22.05.2018 SKF/FAG Make ball Bearings
4678 1- PE180561-1 27.04.2018 18.05.2018 HP Ink Catridge
4679 1- PE180562-1 27.04.2018 18.05.2018 High Voltage insulation resistance tester
4680 1- PE180567-1 28.04.2018 29.05.2018 Pin Type Copper Lugs
4681 1- PE180571-1 29.04.2018 29.05.2018 ABB make Variable Frequency Drive
4682 1- PE180576-1 29.04.2018 29.05.2018 ABB Make Relay & Coil
4683 1- PE180578-1 29.04.2018 29.05.2018 Potential Transformer 1 phase
4684 1- PE180579-1 29.04.2018 29.05.2018 500 VA Control T/F (Transformer) Single Phase
4685 1- PE180583-1 29.04.2018 22.05.2018 Taparia make Electrical equipments
4686 1- PE180584-1 29.04.2018 22.05.2018 Assistant Control panel suitable for ACS50 Drive
4687 1- PE180585-1 30.04.2018 22.05.2018 Fan for 11KW NORD make motor/Thermal block
4688 2- PE180556-1 26.04.2018 22.05.2018 HDPE long neck end 90mm
4689 2- PE180558-1 27.04.2018 18.05.2018 Compressor cooler water pump along with base frame
4690 2- PE180559-1 27.04.2018 22.05.2018 Rolls of Caution type ribbons
4691 2- PE180573-1 29.04.2018 29.05.2018 Non Return Valve/Gate Valve
4692 2- PE180577-1 29.04.2018 29.05.2018 Standard laboratory 03 way water tap
4693 3- PE180557-1- 26.04.2018 22.05.2018 Lithium based multipurpose grease
4694 3- PE180563-1 27.04.2018 18.05.2018 Battery/ Battery Charger
4695 3- PE180564-1 28.04.2018 22.05.2018 Aluminum paint
4696 3- PE180570-1 29.04.2018 29.05.218 Lubrication oil (SP320)
4697 3- PE180572-1 29.04.2018 29.05.2018 YASKAWA Make Variable Frequency Drive
4698 3- PE180574-1 29.04.2018 29.05.2018 Mahindra tractor Model,265 DI model Spares
4699 3- PE180575-1 29.04.2018 29.05.2018 Hydra Spares
4700 3- PE180580-1 29.04.2018 29.05.2018 Clutch Disc Assembly